createdAt,value
2022-10-05T00:00:00.838Z,100622.91
2022-10-05T00:02:27.453Z,100619.97
2022-10-05T00:04:56.625Z,100630.81
2022-10-05T00:07:24.723Z,100618.75
2022-10-05T00:09:57.387Z,100630.31
2022-10-05T00:12:26.085Z,100633.94
2022-10-05T00:14:59.219Z,100613.28
2022-10-05T00:17:29.202Z,100622.31
2022-10-05T00:19:55.862Z,100627.69
2022-10-05T00:22:34.758Z,100623.19
2022-10-05T00:25:11.225Z,100624.91
2022-10-05T00:27:40.646Z,100561.19
2022-10-05T00:30:18.971Z,100618.72
2022-10-05T00:32:47.555Z,100615.25
2022-10-05T00:35:15.823Z,100616.25
2022-10-05T00:37:43.736Z,100611.13
2022-10-05T00:40:46.276Z,100602.47
2022-10-05T00:43:49.903Z,100610.72
2022-10-05T00:46:24.672Z,100623.59
2022-10-05T00:49:09.698Z,100608.66
2022-10-05T00:51:38.797Z,100602.91
2022-10-05T00:54:34.449Z,100620.13
2022-10-05T00:57:34.175Z,100621.16
2022-10-05T01:00:13.462Z,100607.16
2022-10-05T01:02:56.365Z,100615.88
2022-10-05T01:05:53.860Z,100605.19
2022-10-05T01:08:44.819Z,100596.66
2022-10-05T01:11:25.216Z,100601.56
2022-10-05T01:14:02.996Z,100605.19
2022-10-05T01:16:47.884Z,100604.63
2022-10-05T01:20:13.843Z,100602.00
2022-10-05T01:22:58.248Z,100584.34
2022-10-05T01:25:25.013Z,100583.50
2022-10-05T01:28:19.133Z,100594.97
2022-10-05T01:31:24.159Z,100592.81
2022-10-05T01:34:13.332Z,100596.44
2022-10-05T01:36:49.366Z,100597.41
2022-10-05T01:39:27.658Z,100582.38
2022-10-05T01:42:15.793Z,100586.78
2022-10-05T01:44:57.884Z,100580.75
2022-10-05T01:47:44.762Z,100582.72
2022-10-05T01:50:29.234Z,100574.22
2022-10-05T01:53:15.645Z,100587.19
2022-10-05T01:56:01.670Z,100591.72
2022-10-05T01:59:16.441Z,100591.03
2022-10-05T02:02:03.296Z,100584.28
2022-10-05T02:05:00.900Z,100572.34
2022-10-05T02:07:36.736Z,100587.00
2022-10-05T02:10:14.717Z,100576.00
2022-10-05T02:12:44.767Z,100587.59
2022-10-05T02:15:19.762Z,100577.75
2022-10-05T02:17:49.521Z,100567.13
2022-10-05T02:20:24.998Z,100561.25
2022-10-05T02:22:54.949Z,100550.69
2022-10-05T02:25:26.922Z,100561.78
2022-10-05T02:28:01.389Z,100552.44
2022-10-05T02:30:29.743Z,100547.16
2022-10-05T02:33:08.499Z,100553.19
2022-10-05T02:35:35.145Z,100565.41
2022-10-05T02:38:40.083Z,100574.25
2022-10-05T02:41:20.802Z,100582.13
2022-10-05T02:43:53.432Z,100577.09
2022-10-05T02:46:29.750Z,100582.88
2022-10-05T02:49:14.651Z,100575.44
2022-10-05T02:51:56.324Z,100568.22
2022-10-05T02:54:42.633Z,100564.53
2022-10-05T02:57:10.033Z,100561.16
2022-10-05T02:59:48.004Z,100555.50
2022-10-05T03:02:36.494Z,100563.25
2022-10-05T03:05:41.881Z,100546.03
2022-10-05T03:08:25.229Z,100553.41
2022-10-05T03:11:16.496Z,100548.81
2022-10-05T03:14:14.165Z,100550.72
2022-10-05T03:17:02.587Z,100557.00
2022-10-05T03:19:51.115Z,100540.44
2022-10-05T03:22:27.807Z,100528.41
2022-10-05T03:24:55.212Z,100539.31
2022-10-05T03:27:51.063Z,100535.56
2022-10-05T03:30:26.202Z,100546.94
2022-10-05T03:33:06.457Z,100540.06
2022-10-05T03:36:06.184Z,100551.88
2022-10-05T03:38:47.768Z,100550.44
2022-10-05T03:41:59.255Z,100544.38
2022-10-05T03:44:50.499Z,100531.91
2022-10-05T03:48:01.094Z,100542.09
2022-10-05T03:51:14.845Z,100525.91
2022-10-05T03:54:05.008Z,100530.34
2022-10-05T03:56:47.529Z,100504.28
2022-10-05T03:59:18.682Z,100540.44
2022-10-05T04:02:09.329Z,100435.19
2022-10-05T04:05:14.527Z,100544.63
2022-10-05T04:07:49.919Z,100541.31
2022-10-05T04:10:33.747Z,100537.25
2022-10-05T04:13:10.633Z,100547.09
2022-10-05T04:15:46.358Z,100518.59
2022-10-05T04:18:40.325Z,100534.56
2022-10-05T04:21:14.386Z,100534.59
2022-10-05T04:23:58.577Z,100540.38
2022-10-05T04:26:35.285Z,100549.25
2022-10-05T04:29:17.268Z,100533.84
2022-10-05T04:32:18.080Z,100551.25
2022-10-05T04:35:02.612Z,100463.41
2022-10-05T04:37:56.740Z,100544.22
2022-10-05T04:40:39.443Z,100546.00
2022-10-05T04:43:44.072Z,100543.00
2022-10-05T04:46:29.368Z,100539.25
2022-10-05T04:49:08.733Z,100537.59
2022-10-05T04:51:57.031Z,100536.09
2022-10-05T04:54:34.352Z,100546.81
2022-10-05T04:57:10.670Z,100544.41
2022-10-05T05:00:00.353Z,100538.31
2022-10-05T05:02:37.633Z,100533.91
2022-10-05T05:05:07.119Z,100544.16
2022-10-05T05:07:54.067Z,100539.66
2022-10-05T05:10:26.599Z,100540.38
2022-10-05T05:13:40.857Z,100535.56
2022-10-05T05:16:23.242Z,100543.50
2022-10-05T05:19:01.886Z,100529.50
2022-10-05T05:21:41.086Z,100543.56
2022-10-05T05:24:53.652Z,100538.28
2022-10-05T05:27:26.403Z,100539.88
2022-10-05T05:30:02.363Z,100543.66
2022-10-05T05:33:08.346Z,100540.31
2022-10-05T05:39:06.373Z,100550.09
2022-10-05T05:41:53.733Z,100550.94
2022-10-05T06:02:18.104Z,100536.88
2022-10-05T06:05:01.565Z,100530.50
2022-10-05T06:07:33.249Z,100527.19
2022-10-05T06:10:34.622Z,100524.06
2022-10-05T06:13:08.407Z,100519.78
2022-10-05T06:15:43.892Z,100529.16
2022-10-05T06:18:20.522Z,100529.88
2022-10-05T06:20:53.249Z,100525.63
2022-10-05T06:23:30.036Z,100526.00
2022-10-05T17:09:43.216Z,100621.75
2022-10-05T17:12:37.686Z,100630.09
2022-10-05T17:15:42.076Z,100624.44
2022-10-05T17:18:30.329Z,100635.56
2022-10-05T17:21:08.795Z,100628.31
2022-10-05T17:23:40.977Z,100622.78
2022-10-05T17:26:13.808Z,100622.56
2022-10-05T17:29:11.272Z,100625.94
2022-10-05T17:32:03.481Z,100615.25
2022-10-05T17:34:34.359Z,100597.03
2022-10-05T17:37:21.602Z,100613.50
2022-10-05T17:39:50.942Z,100603.84
2022-10-05T17:42:45.444Z,100602.72
2022-10-05T17:45:14.805Z,100609.59
2022-10-05T17:48:05.030Z,100607.00
2022-10-05T17:51:04.983Z,100605.22
2022-10-05T17:53:52.783Z,100609.63
2022-10-05T17:56:22.126Z,100582.84
2022-10-05T17:59:08.224Z,100612.97
2022-10-05T18:01:39.309Z,100585.34
2022-10-05T18:04:11.812Z,100607.63
2022-10-05T18:06:38.947Z,100616.53
2022-10-05T18:09:19.971Z,100612.16
2022-10-05T18:12:17.143Z,100611.16
2022-10-05T18:14:57.163Z,100612.78
2022-10-05T18:17:48.444Z,100616.38
2022-10-05T18:20:24.188Z,100598.88
2022-10-05T18:22:53.475Z,100614.59
2022-10-05T18:25:34.123Z,100611.97
2022-10-05T18:28:40.846Z,100612.81
2022-10-05T18:31:39.360Z,100599.72
2022-10-05T18:34:31.316Z,100557.59
2022-10-05T18:37:01.364Z,100597.16
2022-10-05T18:39:30.384Z,100597.03
2022-10-05T18:42:27.590Z,100598.03
2022-10-05T18:45:12.128Z,100595.50
2022-10-05T18:48:06.862Z,100575.59
2022-10-05T18:50:38.968Z,100589.50
2022-10-05T18:53:30.280Z,100593.88
2022-10-05T18:56:18.219Z,100589.44
2022-10-05T18:59:08.227Z,100574.69
2022-10-05T19:02:16.737Z,100598.78
2022-10-05T19:04:46.512Z,100589.06
2022-10-05T19:07:20.146Z,100597.75
2022-10-05T19:10:19.626Z,100594.97
2022-10-05T19:13:10.984Z,100593.59
2022-10-05T19:16:03.806Z,100590.84
2022-10-05T19:18:55.316Z,100587.56
2022-10-05T19:21:40.992Z,100584.00
2022-10-05T19:24:31.859Z,100588.28
2022-10-05T19:27:02.246Z,100591.22
2022-10-05T19:29:40.454Z,100585.19
2022-10-05T19:32:34.311Z,100583.66
2022-10-05T19:35:23.878Z,100583.50
2022-10-05T19:38:15.892Z,100587.13
2022-10-05T19:40:54.375Z,100580.13
2022-10-05T19:43:53.692Z,100582.81
2022-10-05T19:46:27.509Z,100569.00
2022-10-05T19:48:54.584Z,100572.50
2022-10-05T19:51:25.410Z,100575.97
2022-10-05T19:53:56.051Z,100549.97
2022-10-05T19:56:30.968Z,100574.28
2022-10-05T19:59:04.400Z,100569.81
2022-10-05T20:01:36.940Z,100563.94
2022-10-05T20:04:05.124Z,100573.38
2022-10-05T20:06:31.764Z,100570.91
2022-10-05T20:09:04.693Z,100567.44
2022-10-05T20:11:32.393Z,100560.47
2022-10-05T20:14:01.564Z,100570.06
2022-10-05T20:16:51.142Z,100568.44
2022-10-05T20:19:57.365Z,100575.66
2022-10-05T20:22:35.418Z,100576.50
2022-10-05T20:25:06.835Z,100550.56
2022-10-05T20:27:42.507Z,100572.13
2022-10-05T20:30:12.339Z,100571.38
2022-10-05T20:32:38.895Z,100576.69
2022-10-05T20:35:07.236Z,100563.75
2022-10-05T20:37:34.008Z,100574.13
2022-10-05T20:40:00.563Z,100575.81
2022-10-05T20:42:27.162Z,100569.75
2022-10-05T20:44:56.835Z,100569.91
2022-10-05T20:47:24.478Z,100510.50
2022-10-05T20:49:52.727Z,100570.84
2022-10-05T20:52:19.282Z,100577.03
2022-10-05T20:57:21.171Z,100576.47
2022-10-05T20:59:47.909Z,100581.81
2022-10-05T21:02:14.484Z,100580.16
2022-10-05T21:04:47.516Z,100566.31
2022-10-05T21:07:16.821Z,100525.81
2022-10-05T21:09:44.745Z,100570.78
2022-10-05T21:12:12.246Z,100576.84
2022-10-05T21:14:38.911Z,100586.47
2022-10-05T21:17:06.785Z,100578.63
2022-10-05T21:19:40.580Z,100575.06
2022-10-05T21:22:09.295Z,100579.47
2022-10-05T21:24:37.814Z,100577.69
2022-10-05T21:27:05.113Z,100577.63
2022-10-05T21:29:33.509Z,100577.66
2022-10-05T21:32:00.446Z,100576.91
2022-10-05T21:34:28.607Z,100571.72
2022-10-05T21:36:55.247Z,100573.47
2022-10-05T21:39:22.030Z,100578.75
2022-10-05T21:41:49.790Z,100574.34
2022-10-05T21:44:16.762Z,100571.88
2022-10-05T21:46:43.672Z,100580.63
2022-10-05T21:49:13.335Z,100577.28
2022-10-05T21:51:41.826Z,100576.63
2022-10-05T21:54:17.470Z,100577.34
2022-10-05T21:56:48.092Z,100572.16
2022-10-05T21:59:18.875Z,100581.72
2022-10-05T22:01:46.003Z,100576.63
2022-10-05T22:04:12.581Z,100587.88
2022-10-05T22:06:40.330Z,100590.50
2022-10-05T22:09:07.983Z,100587.81
2022-10-05T22:11:34.607Z,100579.06
2022-10-05T22:14:04.548Z,100547.38
2022-10-05T22:16:35.326Z,100586.84
2022-10-05T22:19:07.585Z,100573.84
2022-10-05T22:21:41.497Z,100582.59
2022-10-05T22:24:10.499Z,100588.66
2022-10-05T22:26:37.557Z,100575.66
2022-10-05T22:29:04.381Z,100567.94
2022-10-05T22:31:31.072Z,100592.94
2022-10-05T22:33:57.671Z,100561.00
2022-10-05T22:36:24.589Z,100592.00
2022-10-05T22:38:51.255Z,100576.34
2022-10-05T22:41:20.550Z,100588.75
2022-10-05T22:43:50.099Z,100589.69
2022-10-05T22:46:17.104Z,100583.69
2022-10-05T22:48:43.752Z,100558.63
2022-10-05T22:51:10.461Z,100577.56
2022-10-05T22:53:37.670Z,100585.47
2022-10-05T22:56:09.240Z,100580.25
2022-10-05T22:58:36.672Z,100582.00
2022-10-05T23:01:06.632Z,100576.88
2022-10-05T23:03:33.840Z,100572.50
2022-10-05T23:06:04.387Z,100582.88
2022-10-05T23:08:32.411Z,100576.69
2022-10-05T23:11:06.975Z,100572.44
2022-10-05T23:13:33.835Z,100586.38
2022-10-05T23:16:13.289Z,100585.66
2022-10-05T23:18:40.388Z,100575.28
2022-10-05T23:21:08.609Z,100580.50
2022-10-05T23:23:39.978Z,100589.06
2022-10-05T23:26:09.720Z,100578.56
2022-10-05T23:28:38.503Z,100585.44
2022-10-05T23:31:08.035Z,100568.78
2022-10-05T23:33:35.566Z,100582.75
2022-10-05T23:36:08.313Z,100574.94
2022-10-05T23:38:35.631Z,100588.75
2022-10-05T23:41:02.948Z,100581.81
2022-10-05T23:43:29.819Z,100584.38
2022-10-05T23:45:56.571Z,100582.75
2022-10-05T23:48:23.363Z,100581.94
2022-10-05T23:50:50.495Z,100587.16
2022-10-05T23:53:18.256Z,100578.53
2022-10-05T23:55:45.227Z,100575.88
2022-10-05T23:58:12.365Z,100578.38
